sensor_id;sensor_type;location;lat;lon;timestamp;P1;durP1;ratioP1;P2;durP2;ratioP2
54865;SDS011;40754;52.094;4.328;2023-02-28T00:01:00;7.45;;;3.08;;
54865;SDS011;40754;52.094;4.328;2023-02-28T00:09:58;7.90;;;3.47;;
54865;SDS011;40754;52.094;4.328;2023-02-28T00:12:31;5.40;;;2.90;;
54865;SDS011;40754;52.094;4.328;2023-02-28T00:15:10;8.45;;;3.28;;
54865;SDS011;40754;52.094;4.328;2023-02-28T00:18:05;6.75;;;3.50;;
54865;SDS011;40754;52.094;4.328;2023-02-28T00:20:51;6.68;;;3.28;;
54865;SDS011;40754;52.094;4.328;2023-02-28T00:23:24;8.07;;;3.25;;
54865;SDS011;40754;52.094;4.328;2023-02-28T00:26:11;9.35;;;3.20;;
54865;SDS011;40754;52.094;4.328;2023-02-28T00:31:48;8.23;;;2.78;;
54865;SDS011;40754;52.094;4.328;2023-02-28T00:46:13;8.52;;;3.28;;
54865;SDS011;40754;52.094;4.328;2023-02-28T00:48:56;7.07;;;3.20;;
54865;SDS011;40754;52.094;4.328;2023-02-28T00:51:39;5.53;;;2.85;;
54865;SDS011;40754;52.094;4.328;2023-02-28T00:54:41;9.10;;;4.03;;
54865;SDS011;40754;52.094;4.328;2023-02-28T00:57:38;6.25;;;3.20;;
54865;SDS011;40754;52.094;4.328;2023-02-28T01:00:15;8.10;;;3.40;;
54865;SDS011;40754;52.094;4.328;2023-02-28T01:03:10;6.10;;;3.10;;
54865;SDS011;40754;52.094;4.328;2023-02-28T01:09:10;7.03;;;3.47;;
54865;SDS011;40754;52.094;4.328;2023-02-28T01:11:47;6.38;;;3.22;;
54865;SDS011;40754;52.094;4.328;2023-02-28T01:14:18;7.00;;;3.28;;
54865;SDS011;40754;52.094;4.328;2023-02-28T01:16:50;5.35;;;3.25;;
54865;SDS011;40754;52.094;4.328;2023-02-28T01:19:16;9.07;;;3.67;;
54865;SDS011;40754;52.094;4.328;2023-02-28T01:21:44;6.00;;;3.08;;
54865;SDS011;40754;52.094;4.328;2023-02-28T01:24:13;5.15;;;3.50;;
54865;SDS011;40754;52.094;4.328;2023-02-28T01:26:41;9.30;;;3.33;;
54865;SDS011;40754;52.094;4.328;2023-02-28T01:29:07;12.15;;;3.20;;
54865;SDS011;40754;52.094;4.328;2023-02-28T01:31:32;8.52;;;3.63;;
54865;SDS011;40754;52.094;4.328;2023-02-28T01:33:58;6.60;;;3.03;;
54865;SDS011;40754;52.094;4.328;2023-02-28T01:36:32;11.52;;;3.25;;
54865;SDS011;40754;52.094;4.328;2023-02-28T01:39:23;6.05;;;3.00;;
54865;SDS011;40754;52.094;4.328;2023-02-28T01:41:51;8.20;;;3.78;;
54865;SDS011;40754;52.094;4.328;2023-02-28T01:47:34;6.63;;;3.35;;
54865;SDS011;40754;52.094;4.328;2023-02-28T01:50:09;7.03;;;3.65;;
54865;SDS011;40754;52.094;4.328;2023-02-28T01:55:16;9.10;;;3.80;;
54865;SDS011;40754;52.094;4.328;2023-02-28T01:57:54;6.15;;;3.33;;
54865;SDS011;40754;52.094;4.328;2023-02-28T02:00:24;9.57;;;4.15;;
54865;SDS011;40754;52.094;4.328;2023-02-28T02:02:54;4.97;;;3.28;;
54865;SDS011;40754;52.094;4.328;2023-02-28T02:05:37;10.70;;;3.35;;
54865;SDS011;40754;52.094;4.328;2023-02-28T02:08:15;11.20;;;4.43;;
54865;SDS011;40754;52.094;4.328;2023-02-28T02:11:14;8.38;;;3.58;;
54865;SDS011;40754;52.094;4.328;2023-02-28T02:31:34;12.70;;;4.25;;
54865;SDS011;40754;52.094;4.328;2023-02-28T02:40:50;6.65;;;3.15;;
54865;SDS011;40754;52.094;4.328;2023-02-28T02:46:21;12.48;;;3.88;;
54865;SDS011;40754;52.094;4.328;2023-02-28T02:49:10;6.60;;;3.67;;
54865;SDS011;40754;52.094;4.328;2023-02-28T02:51:53;6.38;;;3.83;;
54865;SDS011;40754;52.094;4.328;2023-02-28T02:54:43;7.95;;;3.65;;
54865;SDS011;40754;52.094;4.328;2023-02-28T02:57:15;9.68;;;3.97;;
54865;SDS011;40754;52.094;4.328;2023-02-28T02:59:58;5.32;;;3.60;;
54865;SDS011;40754;52.094;4.328;2023-02-28T03:02:27;7.82;;;4.10;;
54865;SDS011;40754;52.094;4.328;2023-02-28T03:05:02;8.43;;;4.20;;
54865;SDS011;40754;52.094;4.328;2023-02-28T03:07:32;11.63;;;5.03;;
54865;SDS011;40754;52.094;4.328;2023-02-28T03:15:37;8.18;;;4.25;;
54865;SDS011;40754;52.094;4.328;2023-02-28T03:18:27;13.27;;;4.50;;
54865;SDS011;40754;52.094;4.328;2023-02-28T03:24:03;7.55;;;4.78;;
54865;SDS011;40754;52.094;4.328;2023-02-28T03:26:54;9.43;;;4.03;;
54865;SDS011;40754;52.094;4.328;2023-02-28T03:29:33;11.70;;;4.65;;
54865;SDS011;40754;52.094;4.328;2023-02-28T03:32:05;10.32;;;4.80;;
54865;SDS011;40754;52.094;4.328;2023-02-28T03:34:49;9.85;;;4.78;;
54865;SDS011;40754;52.094;4.328;2023-02-28T03:37:23;11.98;;;4.93;;
54865;SDS011;40754;52.094;4.328;2023-02-28T03:40:14;12.30;;;4.95;;
54865;SDS011;40754;52.094;4.328;2023-02-28T03:42:56;12.38;;;5.32;;
54865;SDS011;40754;52.094;4.328;2023-02-28T03:45:29;12.52;;;5.35;;
54865;SDS011;40754;52.094;4.328;2023-02-28T03:48:20;8.75;;;4.57;;
54865;SDS011;40754;52.094;4.328;2023-02-28T03:50:51;13.32;;;5.40;;
54865;SDS011;40754;52.094;4.328;2023-02-28T03:53:36;14.88;;;4.85;;
54865;SDS011;40754;52.094;4.328;2023-02-28T03:58:48;12.80;;;5.32;;
54865;SDS011;40754;52.094;4.328;2023-02-28T04:01:54;7.68;;;4.88;;
54865;SDS011;40754;52.094;4.328;2023-02-28T04:04:25;8.77;;;5.50;;
54865;SDS011;40754;52.094;4.328;2023-02-28T04:07:04;8.77;;;5.07;;
54865;SDS011;40754;52.094;4.328;2023-02-28T04:09:37;9.50;;;5.43;;
54865;SDS011;40754;52.094;4.328;2023-02-28T04:14:56;10.40;;;5.22;;
54865;SDS011;40754;52.094;4.328;2023-02-28T04:17:41;10.02;;;5.28;;
54865;SDS011;40754;52.094;4.328;2023-02-28T04:23:09;14.25;;;4.82;;
54865;SDS011;40754;52.094;4.328;2023-02-28T04:28:38;12.43;;;5.75;;
54865;SDS011;40754;52.094;4.328;2023-02-28T04:34:13;10.68;;;5.60;;
54865;SDS011;40754;52.094;4.328;2023-02-28T04:39:44;9.52;;;5.45;;
54865;SDS011;40754;52.094;4.328;2023-02-28T04:42:23;10.98;;;5.55;;
54865;SDS011;40754;52.094;4.328;2023-02-28T04:45:02;12.70;;;5.70;;
54865;SDS011;40754;52.094;4.328;2023-02-28T04:47:35;12.10;;;6.68;;
54865;SDS011;40754;52.094;4.328;2023-02-28T04:53:43;14.50;;;6.53;;
54865;SDS011;40754;52.094;4.328;2023-02-28T04:56:15;13.13;;;6.60;;
54865;SDS011;40754;52.094;4.328;2023-02-28T05:01:58;10.95;;;6.93;;
54865;SDS011;40754;52.094;4.328;2023-02-28T05:07:46;14.73;;;7.10;;
54865;SDS011;40754;52.094;4.328;2023-02-28T05:10:37;14.65;;;6.75;;
54865;SDS011;40754;52.094;4.328;2023-02-28T05:13:21;15.27;;;6.90;;
54865;SDS011;40754;52.094;4.328;2023-02-28T05:15:47;14.23;;;7.25;;
54865;SDS011;40754;52.094;4.328;2023-02-28T05:18:13;17.35;;;7.15;;
54865;SDS011;40754;52.094;4.328;2023-02-28T05:20:39;17.90;;;7.00;;
54865;SDS011;40754;52.094;4.328;2023-02-28T05:23:04;12.90;;;6.07;;
54865;SDS011;40754;52.094;4.328;2023-02-28T05:25:30;15.20;;;6.60;;
54865;SDS011;40754;52.094;4.328;2023-02-28T05:27:56;13.48;;;6.53;;
54865;SDS011;40754;52.094;4.328;2023-02-28T05:30:22;14.98;;;6.50;;
54865;SDS011;40754;52.094;4.328;2023-02-28T05:32:51;15.38;;;6.40;;
54865;SDS011;40754;52.094;4.328;2023-02-28T05:35:16;14.48;;;6.80;;
54865;SDS011;40754;52.094;4.328;2023-02-28T05:37:42;13.77;;;7.25;;
54865;SDS011;40754;52.094;4.328;2023-02-28T05:40:08;12.52;;;6.70;;
54865;SDS011;40754;52.094;4.328;2023-02-28T05:42:37;12.88;;;6.60;;
54865;SDS011;40754;52.094;4.328;2023-02-28T05:45:04;12.25;;;5.95;;
54865;SDS011;40754;52.094;4.328;2023-02-28T05:47:30;16.10;;;6.43;;
54865;SDS011;40754;52.094;4.328;2023-02-28T05:49:55;14.55;;;6.47;;
54865;SDS011;40754;52.094;4.328;2023-02-28T05:52:21;8.85;;;6.45;;
54865;SDS011;40754;52.094;4.328;2023-02-28T05:54:47;12.60;;;6.97;;
54865;SDS011;40754;52.094;4.328;2023-02-28T05:57:13;10.77;;;6.20;;
54865;SDS011;40754;52.094;4.328;2023-02-28T05:59:39;12.88;;;7.10;;
54865;SDS011;40754;52.094;4.328;2023-02-28T06:02:05;14.27;;;7.22;;
54865;SDS011;40754;52.094;4.328;2023-02-28T06:04:34;11.88;;;6.50;;
54865;SDS011;40754;52.094;4.328;2023-02-28T06:07:00;11.70;;;6.78;;
54865;SDS011;40754;52.094;4.328;2023-02-28T06:09:26;14.95;;;6.95;;
54865;SDS011;40754;52.094;4.328;2023-02-28T06:11:52;14.23;;;7.30;;
54865;SDS011;40754;52.094;4.328;2023-02-28T06:14:18;11.48;;;6.80;;
54865;SDS011;40754;52.094;4.328;2023-02-28T06:16:44;14.10;;;7.88;;
54865;SDS011;40754;52.094;4.328;2023-02-28T06:19:13;16.00;;;7.53;;
54865;SDS011;40754;52.094;4.328;2023-02-28T06:21:40;11.48;;;7.43;;
54865;SDS011;40754;52.094;4.328;2023-02-28T06:24:05;13.35;;;7.43;;
54865;SDS011;40754;52.094;4.328;2023-02-28T06:26:34;15.40;;;8.32;;
54865;SDS011;40754;52.094;4.328;2023-02-28T06:29:01;14.15;;;7.47;;
54865;SDS011;40754;52.094;4.328;2023-02-28T06:31:26;13.90;;;8.27;;
54865;SDS011;40754;52.094;4.328;2023-02-28T06:33:53;15.10;;;8.15;;
54865;SDS011;40754;52.094;4.328;2023-02-28T06:36:19;14.50;;;8.48;;
54865;SDS011;40754;52.094;4.328;2023-02-28T06:38:45;12.02;;;8.07;;
54865;SDS011;40754;52.094;4.328;2023-02-28T06:41:13;15.18;;;8.13;;
54865;SDS011;40754;52.094;4.328;2023-02-28T06:43:40;13.77;;;8.57;;
54865;SDS011;40754;52.094;4.328;2023-02-28T06:46:10;12.27;;;8.25;;
54865;SDS011;40754;52.094;4.328;2023-02-28T06:48:38;15.23;;;9.52;;
54865;SDS011;40754;52.094;4.328;2023-02-28T06:51:07;15.35;;;9.15;;
54865;SDS011;40754;52.094;4.328;2023-02-28T06:53:34;16.58;;;8.48;;
54865;SDS011;40754;52.094;4.328;2023-02-28T06:56:03;16.73;;;9.25;;
54865;SDS011;40754;52.094;4.328;2023-02-28T06:58:32;12.98;;;8.38;;
54865;SDS011;40754;52.094;4.328;2023-02-28T07:00:58;17.73;;;8.02;;
54865;SDS011;40754;52.094;4.328;2023-02-28T07:03:24;16.92;;;8.40;;
54865;SDS011;40754;52.094;4.328;2023-02-28T07:05:49;12.20;;;8.32;;
54865;SDS011;40754;52.094;4.328;2023-02-28T07:08:15;15.77;;;8.35;;
54865;SDS011;40754;52.094;4.328;2023-02-28T07:10:41;13.23;;;8.98;;
54865;SDS011;40754;52.094;4.328;2023-02-28T07:13:08;14.30;;;8.70;;
54865;SDS011;40754;52.094;4.328;2023-02-28T07:15:34;18.38;;;9.32;;
54865;SDS011;40754;52.094;4.328;2023-02-28T07:18:03;17.05;;;9.38;;
54865;SDS011;40754;52.094;4.328;2023-02-28T07:20:29;19.05;;;9.40;;
54865;SDS011;40754;52.094;4.328;2023-02-28T07:22:57;18.88;;;9.45;;
54865;SDS011;40754;52.094;4.328;2023-02-28T07:25:25;13.75;;;8.50;;
54865;SDS011;40754;52.094;4.328;2023-02-28T07:27:53;14.57;;;7.93;;
54865;SDS011;40754;52.094;4.328;2023-02-28T07:30:19;13.98;;;8.00;;
54865;SDS011;40754;52.094;4.328;2023-02-28T07:32:45;14.27;;;7.78;;
54865;SDS011;40754;52.094;4.328;2023-02-28T07:35:11;13.02;;;6.40;;
54865;SDS011;40754;52.094;4.328;2023-02-28T07:37:36;8.40;;;5.70;;
54865;SDS011;40754;52.094;4.328;2023-02-28T07:40:03;12.85;;;6.60;;
54865;SDS011;40754;52.094;4.328;2023-02-28T07:42:42;11.68;;;6.45;;
54865;SDS011;40754;52.094;4.328;2023-02-28T07:45:07;12.00;;;5.80;;
54865;SDS011;40754;52.094;4.328;2023-02-28T07:47:39;8.30;;;5.15;;
54865;SDS011;40754;52.094;4.328;2023-02-28T07:50:07;8.25;;;5.53;;
54865;SDS011;40754;52.094;4.328;2023-02-28T07:52:34;10.02;;;5.22;;
54865;SDS011;40754;52.094;4.328;2023-02-28T07:55:02;7.90;;;4.97;;
54865;SDS011;40754;52.094;4.328;2023-02-28T07:57:28;11.45;;;5.30;;
54865;SDS011;40754;52.094;4.328;2023-02-28T07:59:53;14.30;;;5.78;;
54865;SDS011;40754;52.094;4.328;2023-02-28T08:02:19;11.38;;;5.85;;
54865;SDS011;40754;52.094;4.328;2023-02-28T08:04:45;10.27;;;5.55;;
54865;SDS011;40754;52.094;4.328;2023-02-28T08:07:14;12.02;;;6.07;;
54865;SDS011;40754;52.094;4.328;2023-02-28T08:09:41;10.90;;;5.47;;
54865;SDS011;40754;52.094;4.328;2023-02-28T08:12:07;9.20;;;5.25;;
54865;SDS011;40754;52.094;4.328;2023-02-28T08:14:34;17.48;;;6.18;;
54865;SDS011;40754;52.094;4.328;2023-02-28T08:16:59;10.02;;;5.80;;
54865;SDS011;40754;52.094;4.328;2023-02-28T08:19:25;9.20;;;5.45;;
54865;SDS011;40754;52.094;4.328;2023-02-28T08:21:54;9.93;;;5.63;;
54865;SDS011;40754;52.094;4.328;2023-02-28T08:24:20;11.30;;;5.57;;
54865;SDS011;40754;52.094;4.328;2023-02-28T08:26:51;10.15;;;6.18;;
54865;SDS011;40754;52.094;4.328;2023-02-28T08:29:17;9.65;;;6.05;;
54865;SDS011;40754;52.094;4.328;2023-02-28T08:31:43;11.52;;;6.43;;
54865;SDS011;40754;52.094;4.328;2023-02-28T08:34:09;10.18;;;6.00;;
54865;SDS011;40754;52.094;4.328;2023-02-28T08:36:37;10.02;;;6.88;;
54865;SDS011;40754;52.094;4.328;2023-02-28T08:39:03;11.98;;;6.35;;
54865;SDS011;40754;52.094;4.328;2023-02-28T08:41:32;9.40;;;6.20;;
54865;SDS011;40754;52.094;4.328;2023-02-28T08:44:00;8.10;;;5.60;;
54865;SDS011;40754;52.094;4.328;2023-02-28T08:46:26;7.88;;;5.70;;
54865;SDS011;40754;52.094;4.328;2023-02-28T08:48:52;10.50;;;6.53;;
54865;SDS011;40754;52.094;4.328;2023-02-28T08:51:19;10.88;;;6.85;;
54865;SDS011;40754;52.094;4.328;2023-02-28T08:53:51;13.35;;;7.25;;
54865;SDS011;40754;52.094;4.328;2023-02-28T08:56:20;10.93;;;7.93;;
54865;SDS011;40754;52.094;4.328;2023-02-28T08:58:47;9.38;;;6.15;;
54865;SDS011;40754;52.094;4.328;2023-02-28T09:01:34;10.95;;;7.40;;
54865;SDS011;40754;52.094;4.328;2023-02-28T09:03:59;10.25;;;7.13;;
54865;SDS011;40754;52.094;4.328;2023-02-28T09:06:26;17.58;;;7.95;;
54865;SDS011;40754;52.094;4.328;2023-02-28T09:08:55;13.98;;;7.55;;
54865;SDS011;40754;52.094;4.328;2023-02-28T09:11:23;9.32;;;7.18;;
54865;SDS011;40754;52.094;4.328;2023-02-28T09:13:49;11.15;;;7.45;;
54865;SDS011;40754;52.094;4.328;2023-02-28T09:16:15;11.40;;;7.22;;
54865;SDS011;40754;52.094;4.328;2023-02-28T09:18:44;14.02;;;7.93;;
54865;SDS011;40754;52.094;4.328;2023-02-28T09:21:13;11.35;;;6.95;;
54865;SDS011;40754;52.094;4.328;2023-02-28T09:23:47;13.18;;;7.45;;
54865;SDS011;40754;52.094;4.328;2023-02-28T09:26:17;11.77;;;6.85;;
54865;SDS011;40754;52.094;4.328;2023-02-28T09:28:50;12.70;;;7.00;;
54865;SDS011;40754;52.094;4.328;2023-02-28T09:31:18;9.73;;;6.30;;
54865;SDS011;40754;52.094;4.328;2023-02-28T09:33:49;8.40;;;5.70;;
54865;SDS011;40754;52.094;4.328;2023-02-28T09:36:16;10.90;;;5.93;;
54865;SDS011;40754;52.094;4.328;2023-02-28T09:38:42;13.20;;;6.00;;
54865;SDS011;40754;52.094;4.328;2023-02-28T09:41:26;10.60;;;6.72;;
54865;SDS011;40754;52.094;4.328;2023-02-28T09:43:57;10.75;;;6.15;;
54865;SDS011;40754;52.094;4.328;2023-02-28T09:49:16;9.25;;;5.80;;
54865;SDS011;40754;52.094;4.328;2023-02-28T09:51:59;8.50;;;5.40;;
54865;SDS011;40754;52.094;4.328;2023-02-28T09:54:34;7.90;;;5.30;;
54865;SDS011;40754;52.094;4.328;2023-02-28T09:57:04;11.15;;;5.93;;
54865;SDS011;40754;52.094;4.328;2023-02-28T10:09:55;7.13;;;4.38;;
54865;SDS011;40754;52.094;4.328;2023-02-28T10:12:22;6.25;;;3.95;;
54865;SDS011;40754;52.094;4.328;2023-02-28T10:14:52;5.80;;;4.10;;
54865;SDS011;40754;52.094;4.328;2023-02-28T10:17:43;7.10;;;4.40;;
54865;SDS011;40754;52.094;4.328;2023-02-28T10:20:17;6.60;;;3.97;;
54865;SDS011;40754;52.094;4.328;2023-02-28T10:22:53;7.43;;;4.45;;
54865;SDS011;40754;52.094;4.328;2023-02-28T10:25:33;7.20;;;4.43;;
54865;SDS011;40754;52.094;4.328;2023-02-28T10:28:21;8.32;;;4.70;;
54865;SDS011;40754;52.094;4.328;2023-02-28T10:30:54;5.45;;;3.78;;
54865;SDS011;40754;52.094;4.328;2023-02-28T10:33:30;5.90;;;3.50;;
54865;SDS011;40754;52.094;4.328;2023-02-28T10:35:59;7.15;;;3.60;;
54865;SDS011;40754;52.094;4.328;2023-02-28T10:38:26;4.32;;;3.58;;
54865;SDS011;40754;52.094;4.328;2023-02-28T10:41:07;5.82;;;3.50;;
54865;SDS011;40754;52.094;4.328;2023-02-28T10:43:34;9.70;;;4.05;;
54865;SDS011;40754;52.094;4.328;2023-02-28T10:46:02;6.72;;;3.78;;
54865;SDS011;40754;52.094;4.328;2023-02-28T10:48:41;5.85;;;3.67;;
54865;SDS011;40754;52.094;4.328;2023-02-28T10:51:13;10.60;;;4.25;;
54865;SDS011;40754;52.094;4.328;2023-02-28T11:01:24;4.68;;;3.40;;
54865;SDS011;40754;52.094;4.328;2023-02-28T11:04:18;5.75;;;3.55;;
54865;SDS011;40754;52.094;4.328;2023-02-28T11:06:47;6.05;;;3.33;;
54865;SDS011;40754;52.094;4.328;2023-02-28T11:09:23;6.22;;;3.30;;
54865;SDS011;40754;52.094;4.328;2023-02-28T11:11:52;5.53;;;3.13;;
54865;SDS011;40754;52.094;4.328;2023-02-28T11:16:49;6.32;;;3.17;;
54865;SDS011;40754;52.094;4.328;2023-02-28T11:19:29;5.55;;;3.40;;
54865;SDS011;40754;52.094;4.328;2023-02-28T11:22:00;3.80;;;3.00;;
54865;SDS011;40754;52.094;4.328;2023-02-28T11:24:28;7.07;;;3.60;;
54865;SDS011;40754;52.094;4.328;2023-02-28T11:26:56;6.38;;;3.17;;
54865;SDS011;40754;52.094;4.328;2023-02-28T11:29:23;8.02;;;3.20;;
54865;SDS011;40754;52.094;4.328;2023-02-28T11:34:43;5.50;;;2.35;;
54865;SDS011;40754;52.094;4.328;2023-02-28T11:37:14;5.90;;;2.33;;
54865;SDS011;40754;52.094;4.328;2023-02-28T11:39:41;3.70;;;2.15;;
54865;SDS011;40754;52.094;4.328;2023-02-28T11:42:22;7.43;;;2.42;;
54865;SDS011;40754;52.094;4.328;2023-02-28T11:53:14;7.40;;;2.05;;
54865;SDS011;40754;52.094;4.328;2023-02-28T12:23:57;4.35;;;2.67;;
54865;SDS011;40754;52.094;4.328;2023-02-28T12:26:45;7.30;;;2.83;;
54865;SDS011;40754;52.094;4.328;2023-02-28T12:29:16;3.47;;;2.45;;
54865;SDS011;40754;52.094;4.328;2023-02-28T12:31:53;5.90;;;2.90;;
54865;SDS011;40754;52.094;4.328;2023-02-28T12:34:22;5.20;;;2.20;;
54865;SDS011;40754;52.094;4.328;2023-02-28T12:37:59;6.63;;;2.35;;
54865;SDS011;40754;52.094;4.328;2023-02-28T12:40:11;5.68;;;2.38;;
54865;SDS011;40754;52.094;4.328;2023-02-28T12:42:42;8.32;;;2.80;;
54865;SDS011;40754;52.094;4.328;2023-02-28T12:45:16;9.23;;;2.30;;
54865;SDS011;40754;52.094;4.328;2023-02-28T12:47:45;5.32;;;2.45;;
54865;SDS011;40754;52.094;4.328;2023-02-28T12:50:13;2.92;;;2.30;;
54865;SDS011;40754;52.094;4.328;2023-02-28T12:52:43;3.13;;;2.05;;
54865;SDS011;40754;52.094;4.328;2023-02-28T12:55:23;3.92;;;2.30;;
54865;SDS011;40754;52.094;4.328;2023-02-28T13:09:15;4.50;;;2.25;;
54865;SDS011;40754;52.094;4.328;2023-02-28T13:19:40;4.38;;;2.45;;
54865;SDS011;40754;52.094;4.328;2023-02-28T13:22:35;4.97;;;2.20;;
54865;SDS011;40754;52.094;4.328;2023-02-28T13:28:00;4.07;;;1.95;;
54865;SDS011;40754;52.094;4.328;2023-02-28T13:38:41;2.42;;;1.98;;
54865;SDS011;40754;52.094;4.328;2023-02-28T13:44:37;6.30;;;2.28;;
54865;SDS011;40754;52.094;4.328;2023-02-28T13:54:40;2.25;;;2.03;;
54865;SDS011;40754;52.094;4.328;2023-02-28T14:08:50;5.05;;;2.53;;
54865;SDS011;40754;52.094;4.328;2023-02-28T14:11:29;3.80;;;2.42;;
54865;SDS011;40754;52.094;4.328;2023-02-28T14:14:00;4.00;;;2.42;;
54865;SDS011;40754;52.094;4.328;2023-02-28T14:16:28;3.40;;;2.47;;
54865;SDS011;40754;52.094;4.328;2023-02-28T14:19:19;4.90;;;2.40;;
54865;SDS011;40754;52.094;4.328;2023-02-28T14:27:48;8.23;;;2.60;;
54865;SDS011;40754;52.094;4.328;2023-02-28T14:30:43;3.85;;;2.30;;
54865;SDS011;40754;52.094;4.328;2023-02-28T14:36:16;4.10;;;2.33;;
54865;SDS011;40754;52.094;4.328;2023-02-28T14:38:48;5.20;;;2.40;;
54865;SDS011;40754;52.094;4.328;2023-02-28T14:41:20;3.65;;;2.45;;
54865;SDS011;40754;52.094;4.328;2023-02-28T14:43:56;4.60;;;2.63;;
54865;SDS011;40754;52.094;4.328;2023-02-28T14:46:30;3.25;;;2.28;;
54865;SDS011;40754;52.094;4.328;2023-02-28T14:49:03;4.45;;;2.38;;
54865;SDS011;40754;52.094;4.328;2023-02-28T14:51:29;4.68;;;2.60;;
54865;SDS011;40754;52.094;4.328;2023-02-28T14:53:57;5.53;;;2.67;;
54865;SDS011;40754;52.094;4.328;2023-02-28T14:56:25;3.33;;;2.38;;
54865;SDS011;40754;52.094;4.328;2023-02-28T14:58:56;6.18;;;2.70;;
54865;SDS011;40754;52.094;4.328;2023-02-28T15:01:25;4.10;;;2.50;;
54865;SDS011;40754;52.094;4.328;2023-02-28T15:04:04;4.45;;;2.72;;
54865;SDS011;40754;52.094;4.328;2023-02-28T15:06:32;7.55;;;2.53;;
54865;SDS011;40754;52.094;4.328;2023-02-28T15:09:08;3.80;;;2.60;;
54865;SDS011;40754;52.094;4.328;2023-02-28T15:11:44;5.68;;;2.60;;
54865;SDS011;40754;52.094;4.328;2023-02-28T15:14:19;3.53;;;2.30;;
54865;SDS011;40754;52.094;4.328;2023-02-28T15:16:46;4.72;;;2.22;;
54865;SDS011;40754;52.094;4.328;2023-02-28T15:19:18;4.05;;;2.58;;
54865;SDS011;40754;52.094;4.328;2023-02-28T15:21:50;4.40;;;2.13;;
54865;SDS011;40754;52.094;4.328;2023-02-28T15:26:56;3.55;;;2.45;;
54865;SDS011;40754;52.094;4.328;2023-02-28T15:29:26;3.72;;;2.40;;
54865;SDS011;40754;52.094;4.328;2023-02-28T15:34:51;3.25;;;2.20;;
54865;SDS011;40754;52.094;4.328;2023-02-28T15:39:58;3.13;;;2.00;;
54865;SDS011;40754;52.094;4.328;2023-02-28T15:42:40;2.88;;;2.13;;
54865;SDS011;40754;52.094;4.328;2023-02-28T15:45:26;4.55;;;2.40;;
54865;SDS011;40754;52.094;4.328;2023-02-28T15:48:00;6.75;;;2.65;;
54865;SDS011;40754;52.094;4.328;2023-02-28T15:50:27;5.05;;;2.55;;
54865;SDS011;40754;52.094;4.328;2023-02-28T15:52:53;5.43;;;3.03;;
54865;SDS011;40754;52.094;4.328;2023-02-28T15:55:37;4.25;;;2.40;;
54865;SDS011;40754;52.094;4.328;2023-02-28T15:58:03;6.38;;;2.65;;
54865;SDS011;40754;52.094;4.328;2023-02-28T16:00:30;3.75;;;2.60;;
54865;SDS011;40754;52.094;4.328;2023-02-28T16:02:58;5.40;;;2.38;;
54865;SDS011;40754;52.094;4.328;2023-02-28T16:05:28;5.43;;;2.70;;
54865;SDS011;40754;52.094;4.328;2023-02-28T16:08:06;3.85;;;2.35;;
54865;SDS011;40754;52.094;4.328;2023-02-28T16:10:38;6.55;;;2.90;;
54865;SDS011;40754;52.094;4.328;2023-02-28T16:13:08;15.68;;;7.65;;
54865;SDS011;40754;52.094;4.328;2023-02-28T16:15:41;7.35;;;2.78;;
54865;SDS011;40754;52.094;4.328;2023-02-28T16:18:08;4.68;;;2.70;;
54865;SDS011;40754;52.094;4.328;2023-02-28T16:20:39;4.50;;;2.08;;
54865;SDS011;40754;52.094;4.328;2023-02-28T16:23:05;3.97;;;2.53;;
54865;SDS011;40754;52.094;4.328;2023-02-28T16:25:35;3.17;;;2.35;;
54865;SDS011;40754;52.094;4.328;2023-02-28T16:28:25;5.70;;;3.70;;
54865;SDS011;40754;52.094;4.328;2023-02-28T16:30:57;5.18;;;3.30;;
54865;SDS011;40754;52.094;4.328;2023-02-28T16:33:25;5.15;;;3.38;;
54865;SDS011;40754;52.094;4.328;2023-02-28T16:35:53;6.03;;;3.40;;
54865;SDS011;40754;52.094;4.328;2023-02-28T16:38:19;7.28;;;2.88;;
54865;SDS011;40754;52.094;4.328;2023-02-28T16:40:45;5.65;;;3.25;;
54865;SDS011;40754;52.094;4.328;2023-02-28T16:43:15;3.20;;;2.85;;
54865;SDS011;40754;52.094;4.328;2023-02-28T16:45:43;3.75;;;2.83;;
54865;SDS011;40754;52.094;4.328;2023-02-28T16:48:12;9.23;;;3.50;;
54865;SDS011;40754;52.094;4.328;2023-02-28T16:50:44;4.95;;;2.63;;
54865;SDS011;40754;52.094;4.328;2023-02-28T16:53:09;5.03;;;3.03;;
54865;SDS011;40754;52.094;4.328;2023-02-28T16:55:35;6.05;;;3.05;;
54865;SDS011;40754;52.094;4.328;2023-02-28T16:58:04;6.43;;;3.30;;
54865;SDS011;40754;52.094;4.328;2023-02-28T17:00:31;4.20;;;2.80;;
54865;SDS011;40754;52.094;4.328;2023-02-28T17:02:58;7.07;;;3.30;;
54865;SDS011;40754;52.094;4.328;2023-02-28T17:05:33;4.32;;;2.95;;
54865;SDS011;40754;52.094;4.328;2023-02-28T17:08:04;11.52;;;3.10;;
54865;SDS011;40754;52.094;4.328;2023-02-28T17:10:30;7.35;;;3.75;;
54865;SDS011;40754;52.094;4.328;2023-02-28T17:12:56;4.65;;;3.13;;
54865;SDS011;40754;52.094;4.328;2023-02-28T17:15:28;4.72;;;2.92;;
54865;SDS011;40754;52.094;4.328;2023-02-28T17:17:58;5.78;;;3.10;;
54865;SDS011;40754;52.094;4.328;2023-02-28T17:20:24;5.88;;;3.10;;
54865;SDS011;40754;52.094;4.328;2023-02-28T17:22:52;4.65;;;2.72;;
54865;SDS011;40754;52.094;4.328;2023-02-28T17:25:18;8.23;;;3.13;;
54865;SDS011;40754;52.094;4.328;2023-02-28T17:27:44;7.25;;;2.95;;
54865;SDS011;40754;52.094;4.328;2023-02-28T17:30:14;4.03;;;2.80;;
54865;SDS011;40754;52.094;4.328;2023-02-28T17:32:41;6.47;;;3.42;;
54865;SDS011;40754;52.094;4.328;2023-02-28T17:35:10;8.05;;;3.20;;
54865;SDS011;40754;52.094;4.328;2023-02-28T17:37:35;7.78;;;3.00;;
54865;SDS011;40754;52.094;4.328;2023-02-28T17:40:02;8.18;;;3.70;;
54865;SDS011;40754;52.094;4.328;2023-02-28T17:42:28;5.20;;;3.13;;
54865;SDS011;40754;52.094;4.328;2023-02-28T17:44:54;7.75;;;3.20;;
54865;SDS011;40754;52.094;4.328;2023-02-28T17:47:20;6.97;;;3.10;;
54865;SDS011;40754;52.094;4.328;2023-02-28T17:49:46;4.15;;;3.10;;
54865;SDS011;40754;52.094;4.328;2023-02-28T17:52:18;3.97;;;2.80;;
54865;SDS011;40754;52.094;4.328;2023-02-28T17:54:50;12.07;;;3.42;;
54865;SDS011;40754;52.094;4.328;2023-02-28T17:57:16;5.20;;;3.50;;
54865;SDS011;40754;52.094;4.328;2023-02-28T17:59:45;6.68;;;3.67;;
54865;SDS011;40754;52.094;4.328;2023-02-28T18:02:12;7.93;;;3.50;;
54865;SDS011;40754;52.094;4.328;2023-02-28T18:04:40;7.88;;;3.92;;
54865;SDS011;40754;52.094;4.328;2023-02-28T18:07:10;6.55;;;3.70;;
54865;SDS011;40754;52.094;4.328;2023-02-28T18:09:41;6.72;;;3.97;;
54865;SDS011;40754;52.094;4.328;2023-02-28T18:12:11;7.38;;;3.90;;
54865;SDS011;40754;52.094;4.328;2023-02-28T18:14:37;4.50;;;3.50;;
54865;SDS011;40754;52.094;4.328;2023-02-28T18:17:03;5.97;;;3.55;;
54865;SDS011;40754;52.094;4.328;2023-02-28T18:19:36;4.93;;;3.40;;
54865;SDS011;40754;52.094;4.328;2023-02-28T18:22:03;6.40;;;3.47;;
54865;SDS011;40754;52.094;4.328;2023-02-28T18:24:32;6.65;;;3.72;;
54865;SDS011;40754;52.094;4.328;2023-02-28T18:27:05;5.97;;;3.70;;
54865;SDS011;40754;52.094;4.328;2023-02-28T18:29:31;7.30;;;4.05;;
54865;SDS011;40754;52.094;4.328;2023-02-28T18:31:57;5.40;;;3.88;;
54865;SDS011;40754;52.094;4.328;2023-02-28T18:34:24;6.20;;;3.35;;
54865;SDS011;40754;52.094;4.328;2023-02-28T18:36:50;5.55;;;3.50;;
54865;SDS011;40754;52.094;4.328;2023-02-28T18:39:17;9.10;;;4.18;;
54865;SDS011;40754;52.094;4.328;2023-02-28T18:41:43;6.03;;;3.88;;
54865;SDS011;40754;52.094;4.328;2023-02-28T18:44:09;6.88;;;3.50;;
54865;SDS011;40754;52.094;4.328;2023-02-28T18:46:34;5.28;;;4.18;;
54865;SDS011;40754;52.094;4.328;2023-02-28T18:49:00;5.15;;;3.80;;
54865;SDS011;40754;52.094;4.328;2023-02-28T18:51:26;5.93;;;4.22;;
54865;SDS011;40754;52.094;4.328;2023-02-28T18:53:53;8.40;;;4.20;;
54865;SDS011;40754;52.094;4.328;2023-02-28T18:56:20;8.60;;;4.80;;